This is the latest recevied weather packets stored in our database for station/object WG5EEK. If no packets are shown the sender has not sent any weather packets the latest 10 day(s).
| Time | Temp. | Humidity | Pressure | Rain* | Wind** | Luminosity | Snow |
|---|---|---|---|---|---|---|---|
| 1778172841 | 18.89° C | 55% | 984.2 hPa | - | - | - | - |
| 1778171762 | 18.89° C | 57% | 984.6 hPa | - | - | - | - |
| 1778171401 | 18.89° C | 57% | 984.6 hPa | - | - | - | - |
| 1778169962 | 17.78° C | 57% | 986.7 hPa | - | - | - | - |
| 1778168163 | 17.78° C | 60% | 987.4 hPa | - | - | - | - |
| 1778166387 | 16.67° C | 60% | 989.4 hPa | - | - | - | - |
| 1778165281 | 16.11° C | 61% | 989.9 hPa | - | - | - | - |
| 1778163843 | 15° C | 66% | 991.2 hPa | - | - | - | - |
| 1778161320 | 13.33° C | 77% | 993.8 hPa | - | - | - | - |
| 1778160960 | 13.33° C | 78% | 994.1 hPa | - | - | - | - |
| 1778156642 | 10.56° C | 82% | 997.8 hPa | - | - | - | - |
| 1778155227 | 10° C | 82% | 998.9 hPa | - | - | - | - |
| 1778152322 | 10° C | 81% | 998.7 hPa | - | - | - | - |
| 1778150521 | 10° C | 81% | 998.3 hPa | - | - | - | - |
| 1778149441 | 10° C | 81% | 998.1 hPa | - | - | - | - |
| 1778147642 | 10° C | 81% | 998.1 hPa | - | - | - | - |
| 1778142242 | 10.56° C | 80% | 996.9 hPa | - | - | - | - |
| 1778140442 | 11.11° C | 80% | 996.1 hPa | - | - | - | - |
| 1778137923 | 11.67° C | 80% | 995.8 hPa | - | - | - | - |
| 1778137563 | 11.67° C | 80% | 996.1 hPa | - | - | - | - |
| 1778130723 | 12.78° C | 79% | 993.5 hPa | - | - | - | - |
| 1778128922 | 12.78° C | 79% | 993.3 hPa | - | - | - | - |
| 1778127122 | 13.33° C | 78% | 992.8 hPa | - | - | - | - |
| 1778126762 | 13.33° C | 78% | 992.7 hPa | - | - | - | - |
| 1778126041 | 13.33° C | 78% | 992 hPa | - | - | - | - |
* Rain since midnight (hover to see other rain measurements)
** Current wind speed in m/s (hover to see current wind gust speed)